sensor_id;sensor_type;location;lat;lon;timestamp;temperature;humidity
2957;DHT22;1488;51.548;7.222;2024-02-23T00:01:12;22.40;63.10
2957;DHT22;1488;51.548;7.222;2024-02-23T00:03:39;22.40;63.00
2957;DHT22;1488;51.548;7.222;2024-02-23T00:06:06;22.40;63.00
2957;DHT22;1488;51.548;7.222;2024-02-23T00:08:34;22.40;63.10
2957;DHT22;1488;51.548;7.222;2024-02-23T00:11:01;22.40;63.10
2957;DHT22;1488;51.548;7.222;2024-02-23T00:13:28;22.40;63.10
2957;DHT22;1488;51.548;7.222;2024-02-23T00:15:56;22.40;63.00
2957;DHT22;1488;51.548;7.222;2024-02-23T00:18:23;22.40;63.10
2957;DHT22;1488;51.548;7.222;2024-02-23T00:20:49;22.30;62.90
2957;DHT22;1488;51.548;7.222;2024-02-23T00:23:16;22.30;62.90
2957;DHT22;1488;51.548;7.222;2024-02-23T00:25:45;22.30;62.90
2957;DHT22;1488;51.548;7.222;2024-02-23T00:28:11;22.30;62.90
2957;DHT22;1488;51.548;7.222;2024-02-23T00:30:38;22.30;62.80
2957;DHT22;1488;51.548;7.222;2024-02-23T00:33:06;22.30;62.90
2957;DHT22;1488;51.548;7.222;2024-02-23T00:35:33;22.40;63.10
2957;DHT22;1488;51.548;7.222;2024-02-23T00:38:00;22.20;62.80
2957;DHT22;1488;51.548;7.222;2024-02-23T00:40:27;22.20;62.90
2957;DHT22;1488;51.548;7.222;2024-02-23T00:42:53;22.30;62.90
2957;DHT22;1488;51.548;7.222;2024-02-23T00:45:20;22.20;62.80
2957;DHT22;1488;51.548;7.222;2024-02-23T00:47:47;22.20;62.70
2957;DHT22;1488;51.548;7.222;2024-02-23T00:50:15;22.20;62.80
2957;DHT22;1488;51.548;7.222;2024-02-23T00:52:42;22.20;62.70
2957;DHT22;1488;51.548;7.222;2024-02-23T00:55:09;22.20;62.70
2957;DHT22;1488;51.548;7.222;2024-02-23T00:57:37;22.20;62.80
2957;DHT22;1488;51.548;7.222;2024-02-23T01:00:05;22.20;62.80
2957;DHT22;1488;51.548;7.222;2024-02-23T01:02:34;22.20;62.80
2957;DHT22;1488;51.548;7.222;2024-02-23T01:05:01;22.20;62.70
2957;DHT22;1488;51.548;7.222;2024-02-23T01:07:29;22.10;62.70
2957;DHT22;1488;51.548;7.222;2024-02-23T01:09:56;22.10;62.60
2957;DHT22;1488;51.548;7.222;2024-02-23T01:12:24;22.10;62.60
2957;DHT22;1488;51.548;7.222;2024-02-23T01:14:51;22.10;62.60
2957;DHT22;1488;51.548;7.222;2024-02-23T01:17:17;22.10;62.60
2957;DHT22;1488;51.548;7.222;2024-02-23T01:19:44;22.10;62.50
2957;DHT22;1488;51.548;7.222;2024-02-23T01:22:11;22.20;62.70
2957;DHT22;1488;51.548;7.222;2024-02-23T01:24:41;22.10;62.50
2957;DHT22;1488;51.548;7.222;2024-02-23T01:27:08;22.10;62.40
2957;DHT22;1488;51.548;7.222;2024-02-23T01:29:35;22.10;62.50
2957;DHT22;1488;51.548;7.222;2024-02-23T01:32:02;22.10;62.50
2957;DHT22;1488;51.548;7.222;2024-02-23T01:34:29;22.10;62.50
2957;DHT22;1488;51.548;7.222;2024-02-23T01:36:55;22.10;62.40
2957;DHT22;1488;51.548;7.222;2024-02-23T01:39:22;22.10;62.40
2957;DHT22;1488;51.548;7.222;2024-02-23T01:41:50;22.00;62.30
2957;DHT22;1488;51.548;7.222;2024-02-23T01:44:17;22.10;62.40
2957;DHT22;1488;51.548;7.222;2024-02-23T01:46:46;22.00;62.20
2957;DHT22;1488;51.548;7.222;2024-02-23T01:49:16;22.10;62.40
2957;DHT22;1488;51.548;7.222;2024-02-23T01:51:43;22.10;62.40
2957;DHT22;1488;51.548;7.222;2024-02-23T01:54:10;22.00;62.30
2957;DHT22;1488;51.548;7.222;2024-02-23T01:56:37;22.00;62.20
2957;DHT22;1488;51.548;7.222;2024-02-23T01:59:06;22.00;62.30
2957;DHT22;1488;51.548;7.222;2024-02-23T02:01:34;22.00;62.20
2957;DHT22;1488;51.548;7.222;2024-02-23T02:04:00;22.00;62.30
2957;DHT22;1488;51.548;7.222;2024-02-23T02:06:27;22.00;62.60
2957;DHT22;1488;51.548;7.222;2024-02-23T02:08:54;22.00;62.20
2957;DHT22;1488;51.548;7.222;2024-02-23T02:11:21;22.00;62.20
2957;DHT22;1488;51.548;7.222;2024-02-23T02:13:48;22.00;62.10
2957;DHT22;1488;51.548;7.222;2024-02-23T02:16:16;22.00;62.20
2957;DHT22;1488;51.548;7.222;2024-02-23T02:18:43;22.00;62.20
2957;DHT22;1488;51.548;7.222;2024-02-23T02:21:11;22.00;62.20
2957;DHT22;1488;51.548;7.222;2024-02-23T02:23:38;21.90;62.10
2957;DHT22;1488;51.548;7.222;2024-02-23T02:26:05;21.90;62.10
2957;DHT22;1488;51.548;7.222;2024-02-23T02:28:32;21.90;62.10
2957;DHT22;1488;51.548;7.222;2024-02-23T02:30:59;21.90;62.10
2957;DHT22;1488;51.548;7.222;2024-02-23T02:33:28;21.90;62.20
2957;DHT22;1488;51.548;7.222;2024-02-23T02:35:55;22.00;62.50
2957;DHT22;1488;51.548;7.222;2024-02-23T02:38:21;21.90;62.30
2957;DHT22;1488;51.548;7.222;2024-02-23T02:40:48;21.90;62.80
2957;DHT22;1488;51.548;7.222;2024-02-23T02:43:15;22.00;63.00
2957;DHT22;1488;51.548;7.222;2024-02-23T02:45:42;21.90;62.20
2957;DHT22;1488;51.548;7.222;2024-02-23T02:48:09;21.90;62.40
2957;DHT22;1488;51.548;7.222;2024-02-23T02:50:37;21.90;62.80
2957;DHT22;1488;51.548;7.222;2024-02-23T02:53:04;21.90;62.30
2957;DHT22;1488;51.548;7.222;2024-02-23T02:55:31;21.80;62.60
2957;DHT22;1488;51.548;7.222;2024-02-23T02:57:58;21.90;62.80
2957;DHT22;1488;51.548;7.222;2024-02-23T03:00:25;21.80;62.70
2957;DHT22;1488;51.548;7.222;2024-02-23T03:02:52;21.80;62.90
2957;DHT22;1488;51.548;7.222;2024-02-23T03:05:19;21.80;57.50
2957;DHT22;1488;51.548;7.222;2024-02-23T03:07:47;21.70;57.70
2957;DHT22;1488;51.548;7.222;2024-02-23T03:10:14;21.60;57.50
2957;DHT22;1488;51.548;7.222;2024-02-23T03:12:41;21.60;59.20
2957;DHT22;1488;51.548;7.222;2024-02-23T03:15:08;21.60;60.70
2957;DHT22;1488;51.548;7.222;2024-02-23T03:17:37;21.60;61.10
2957;DHT22;1488;51.548;7.222;2024-02-23T03:20:05;21.70;61.40
2957;DHT22;1488;51.548;7.222;2024-02-23T03:22:34;21.60;61.20
2957;DHT22;1488;51.548;7.222;2024-02-23T03:25:02;21.70;61.50
2957;DHT22;1488;51.548;7.222;2024-02-23T03:27:33;21.70;61.60
2957;DHT22;1488;51.548;7.222;2024-02-23T03:30:00;21.70;61.60
2957;DHT22;1488;51.548;7.222;2024-02-23T03:32:27;21.70;61.60
2957;DHT22;1488;51.548;7.222;2024-02-23T03:34:54;21.70;61.60
2957;DHT22;1488;51.548;7.222;2024-02-23T03:37:20;21.70;61.60
2957;DHT22;1488;51.548;7.222;2024-02-23T03:39:47;21.70;61.60
2957;DHT22;1488;51.548;7.222;2024-02-23T03:42:16;21.70;61.60
2957;DHT22;1488;51.548;7.222;2024-02-23T03:44:43;21.80;61.80
2957;DHT22;1488;51.548;7.222;2024-02-23T03:47:09;21.70;61.60
2957;DHT22;1488;51.548;7.222;2024-02-23T03:49:37;21.70;61.60
2957;DHT22;1488;51.548;7.222;2024-02-23T03:52:04;21.70;61.60
2957;DHT22;1488;51.548;7.222;2024-02-23T03:54:31;21.70;61.60
2957;DHT22;1488;51.548;7.222;2024-02-23T03:56:58;21.70;61.60
2957;DHT22;1488;51.548;7.222;2024-02-23T03:59:28;21.70;61.70
2957;DHT22;1488;51.548;7.222;2024-02-23T04:01:55;21.70;61.50
2957;DHT22;1488;51.548;7.222;2024-02-23T04:04:22;21.70;61.60
2957;DHT22;1488;51.548;7.222;2024-02-23T04:06:48;21.70;61.60
2957;DHT22;1488;51.548;7.222;2024-02-23T04:09:15;21.60;61.50
2957;DHT22;1488;51.548;7.222;2024-02-23T04:11:42;21.60;61.50
2957;DHT22;1488;51.548;7.222;2024-02-23T04:14:09;21.60;61.50
2957;DHT22;1488;51.548;7.222;2024-02-23T04:16:37;21.60;61.70
2957;DHT22;1488;51.548;7.222;2024-02-23T04:19:04;21.60;61.50
2957;DHT22;1488;51.548;7.222;2024-02-23T04:21:30;21.60;61.50
2957;DHT22;1488;51.548;7.222;2024-02-23T04:23:57;21.60;61.50
2957;DHT22;1488;51.548;7.222;2024-02-23T04:26:24;21.60;61.60
2957;DHT22;1488;51.548;7.222;2024-02-23T04:28:51;21.60;61.50
2957;DHT22;1488;51.548;7.222;2024-02-23T04:31:18;21.60;61.60
2957;DHT22;1488;51.548;7.222;2024-02-23T04:33:46;21.70;61.70
2957;DHT22;1488;51.548;7.222;2024-02-23T04:36:12;21.60;61.60
2957;DHT22;1488;51.548;7.222;2024-02-23T04:38:40;21.60;61.50
2957;DHT22;1488;51.548;7.222;2024-02-23T04:41:06;21.60;61.60
2957;DHT22;1488;51.548;7.222;2024-02-23T04:43:33;21.60;61.50
2957;DHT22;1488;51.548;7.222;2024-02-23T04:46:00;21.60;61.50
2957;DHT22;1488;51.548;7.222;2024-02-23T04:48:27;21.60;61.50
2957;DHT22;1488;51.548;7.222;2024-02-23T04:50:57;21.60;61.50
2957;DHT22;1488;51.548;7.222;2024-02-23T04:53:24;21.60;62.40
2957;DHT22;1488;51.548;7.222;2024-02-23T04:55:52;21.60;61.50
2957;DHT22;1488;51.548;7.222;2024-02-23T04:58:18;21.60;61.50
2957;DHT22;1488;51.548;7.222;2024-02-23T05:00:46;21.60;61.50
2957;DHT22;1488;51.548;7.222;2024-02-23T05:03:13;21.50;61.40
2957;DHT22;1488;51.548;7.222;2024-02-23T05:05:41;21.60;61.40
2957;DHT22;1488;51.548;7.222;2024-02-23T05:08:09;21.50;61.40
2957;DHT22;1488;51.548;7.222;2024-02-23T05:10:36;21.60;61.50
2957;DHT22;1488;51.548;7.222;2024-02-23T05:13:04;21.50;61.30
2957;DHT22;1488;51.548;7.222;2024-02-23T05:15:31;21.50;61.40
2957;DHT22;1488;51.548;7.222;2024-02-23T05:17:57;21.50;61.40
2957;DHT22;1488;51.548;7.222;2024-02-23T05:20:24;21.50;61.40
2957;DHT22;1488;51.548;7.222;2024-02-23T05:22:51;21.50;61.30
2957;DHT22;1488;51.548;7.222;2024-02-23T05:25:18;21.50;61.40
2957;DHT22;1488;51.548;7.222;2024-02-23T05:27:45;21.50;61.30
2957;DHT22;1488;51.548;7.222;2024-02-23T05:30:13;21.60;61.50
2957;DHT22;1488;51.548;7.222;2024-02-23T05:32:40;21.50;61.30
2957;DHT22;1488;51.548;7.222;2024-02-23T05:35:06;21.50;61.20
2957;DHT22;1488;51.548;7.222;2024-02-23T05:37:35;21.60;61.50
2957;DHT22;1488;51.548;7.222;2024-02-23T05:40:03;21.50;61.30
2957;DHT22;1488;51.548;7.222;2024-02-23T05:42:37;21.50;61.30
2957;DHT22;1488;51.548;7.222;2024-02-23T05:45:04;21.50;61.30
2957;DHT22;1488;51.548;7.222;2024-02-23T05:47:34;21.50;61.20
2957;DHT22;1488;51.548;7.222;2024-02-23T05:50:01;21.50;61.20
2957;DHT22;1488;51.548;7.222;2024-02-23T05:52:28;21.50;61.40
2957;DHT22;1488;51.548;7.222;2024-02-23T05:54:56;21.50;61.30
2957;DHT22;1488;51.548;7.222;2024-02-23T05:57:22;21.50;61.20
2957;DHT22;1488;51.548;7.222;2024-02-23T05:59:51;21.50;61.30
2957;DHT22;1488;51.548;7.222;2024-02-23T06:02:18;21.40;61.10
2957;DHT22;1488;51.548;7.222;2024-02-23T06:04:44;21.50;61.20
2957;DHT22;1488;51.548;7.222;2024-02-23T06:07:11;21.40;61.10
2957;DHT22;1488;51.548;7.222;2024-02-23T06:09:38;21.40;61.20
2957;DHT22;1488;51.548;7.222;2024-02-23T06:12:06;21.50;61.20
2957;DHT22;1488;51.548;7.222;2024-02-23T06:14:33;21.40;61.00
2957;DHT22;1488;51.548;7.222;2024-02-23T06:17:01;21.40;61.10
2957;DHT22;1488;51.548;7.222;2024-02-23T06:19:28;21.40;61.10
2957;DHT22;1488;51.548;7.222;2024-02-23T06:21:55;21.40;61.10
2957;DHT22;1488;51.548;7.222;2024-02-23T06:24:22;21.40;61.00
2957;DHT22;1488;51.548;7.222;2024-02-23T06:26:48;21.40;61.10
2957;DHT22;1488;51.548;7.222;2024-02-23T06:29:16;21.40;61.10
2957;DHT22;1488;51.548;7.222;2024-02-23T06:31:43;21.40;61.20
2957;DHT22;1488;51.548;7.222;2024-02-23T06:34:16;21.50;62.10
2957;DHT22;1488;51.548;7.222;2024-02-23T06:36:43;21.40;61.20
2957;DHT22;1488;51.548;7.222;2024-02-23T06:39:10;21.40;61.20
2957;DHT22;1488;51.548;7.222;2024-02-23T06:41:38;21.40;61.20
2957;DHT22;1488;51.548;7.222;2024-02-23T06:44:05;21.40;61.20
2957;DHT22;1488;51.548;7.222;2024-02-23T06:46:32;21.40;61.10
2957;DHT22;1488;51.548;7.222;2024-02-23T06:48:59;21.40;61.20
2957;DHT22;1488;51.548;7.222;2024-02-23T06:51:27;21.30;60.90
2957;DHT22;1488;51.548;7.222;2024-02-23T06:53:53;21.40;61.10
2957;DHT22;1488;51.548;7.222;2024-02-23T06:56:22;21.30;60.90
2957;DHT22;1488;51.548;7.222;2024-02-23T06:58:49;21.30;60.90
2957;DHT22;1488;51.548;7.222;2024-02-23T07:01:15;21.30;60.90
2957;DHT22;1488;51.548;7.222;2024-02-23T07:03:42;21.40;61.10
2957;DHT22;1488;51.548;7.222;2024-02-23T07:06:10;21.30;60.90
2957;DHT22;1488;51.548;7.222;2024-02-23T07:08:38;21.30;60.90
2957;DHT22;1488;51.548;7.222;2024-02-23T07:11:05;21.30;60.90
2957;DHT22;1488;51.548;7.222;2024-02-23T07:13:32;21.40;61.00
2957;DHT22;1488;51.548;7.222;2024-02-23T07:16:00;21.30;60.80
2957;DHT22;1488;51.548;7.222;2024-02-23T07:18:27;21.30;60.90
2957;DHT22;1488;51.548;7.222;2024-02-23T07:20:54;21.30;60.80
2957;DHT22;1488;51.548;7.222;2024-02-23T07:23:21;21.20;60.80
2957;DHT22;1488;51.548;7.222;2024-02-23T07:25:49;21.30;60.90
2957;DHT22;1488;51.548;7.222;2024-02-23T07:28:17;21.30;60.90
2957;DHT22;1488;51.548;7.222;2024-02-23T07:30:45;21.30;60.80
2957;DHT22;1488;51.548;7.222;2024-02-23T07:33:12;21.30;60.80
2957;DHT22;1488;51.548;7.222;2024-02-23T07:35:39;21.30;60.80
2957;DHT22;1488;51.548;7.222;2024-02-23T07:38:05;21.30;60.80
2957;DHT22;1488;51.548;7.222;2024-02-23T07:40:32;21.30;60.70
2957;DHT22;1488;51.548;7.222;2024-02-23T07:43:00;21.30;60.70
2957;DHT22;1488;51.548;7.222;2024-02-23T07:45:27;21.30;60.70
2957;DHT22;1488;51.548;7.222;2024-02-23T07:47:54;21.30;60.70
2957;DHT22;1488;51.548;7.222;2024-02-23T07:50:20;21.30;60.70
2957;DHT22;1488;51.548;7.222;2024-02-23T07:52:47;21.30;60.70
2957;DHT22;1488;51.548;7.222;2024-02-23T07:55:14;21.30;60.70
2957;DHT22;1488;51.548;7.222;2024-02-23T07:57:42;21.30;60.70
2957;DHT22;1488;51.548;7.222;2024-02-23T08:00:10;21.30;60.70
2957;DHT22;1488;51.548;7.222;2024-02-23T08:02:37;21.30;60.70
2957;DHT22;1488;51.548;7.222;2024-02-23T08:05:05;21.30;60.70
2957;DHT22;1488;51.548;7.222;2024-02-23T08:07:32;21.30;60.60
2957;DHT22;1488;51.548;7.222;2024-02-23T08:09:59;21.30;60.50
2957;DHT22;1488;51.548;7.222;2024-02-23T08:12:26;21.30;60.60
2957;DHT22;1488;51.548;7.222;2024-02-23T08:14:53;21.30;60.60
2957;DHT22;1488;51.548;7.222;2024-02-23T08:17:21;21.30;60.60
2957;DHT22;1488;51.548;7.222;2024-02-23T08:19:47;21.30;60.50
2957;DHT22;1488;51.548;7.222;2024-02-23T08:22:14;21.30;60.40
2957;DHT22;1488;51.548;7.222;2024-02-23T08:24:41;21.30;61.30
2957;DHT22;1488;51.548;7.222;2024-02-23T08:27:08;21.30;60.40
2957;DHT22;1488;51.548;7.222;2024-02-23T08:29:37;21.40;60.50
2957;DHT22;1488;51.548;7.222;2024-02-23T08:32:05;21.30;60.40
2957;DHT22;1488;51.548;7.222;2024-02-23T08:34:33;21.40;60.40
2957;DHT22;1488;51.548;7.222;2024-02-23T08:37:00;21.30;60.30
2957;DHT22;1488;51.548;7.222;2024-02-23T08:39:28;21.30;60.20
2957;DHT22;1488;51.548;7.222;2024-02-23T08:41:54;21.30;60.20
2957;DHT22;1488;51.548;7.222;2024-02-23T08:44:21;21.30;60.20
2957;DHT22;1488;51.548;7.222;2024-02-23T08:46:48;21.30;60.20
2957;DHT22;1488;51.548;7.222;2024-02-23T08:49:15;21.30;60.20
2957;DHT22;1488;51.548;7.222;2024-02-23T08:51:43;21.30;60.30
2957;DHT22;1488;51.548;7.222;2024-02-23T08:54:10;21.40;60.40
2957;DHT22;1488;51.548;7.222;2024-02-23T08:56:37;21.30;60.10
2957;DHT22;1488;51.548;7.222;2024-02-23T08:59:05;21.30;60.10
2957;DHT22;1488;51.548;7.222;2024-02-23T09:01:32;21.30;60.10
2957;DHT22;1488;51.548;7.222;2024-02-23T09:03:59;21.30;60.20
2957;DHT22;1488;51.548;7.222;2024-02-23T09:06:25;21.30;60.20
2957;DHT22;1488;51.548;7.222;2024-02-23T09:08:54;21.30;60.10
2957;DHT22;1488;51.548;7.222;2024-02-23T09:11:21;21.30;60.00
2957;DHT22;1488;51.548;7.222;2024-02-23T09:13:48;21.30;60.10
2957;DHT22;1488;51.548;7.222;2024-02-23T09:16:15;21.30;60.10
2957;DHT22;1488;51.548;7.222;2024-02-23T09:18:43;21.30;60.10
2957;DHT22;1488;51.548;7.222;2024-02-23T09:21:10;21.30;60.10
2957;DHT22;1488;51.548;7.222;2024-02-23T09:23:35;21.30;60.10
2957;DHT22;1488;51.548;7.222;2024-02-23T09:26:08;21.30;60.10
2957;DHT22;1488;51.548;7.222;2024-02-23T09:28:35;21.30;60.10
2957;DHT22;1488;51.548;7.222;2024-02-23T09:31:02;21.30;60.20
2957;DHT22;1488;51.548;7.222;2024-02-23T09:33:30;21.30;60.30
2957;DHT22;1488;51.548;7.222;2024-02-23T09:35:57;21.30;60.10
2957;DHT22;1488;51.548;7.222;2024-02-23T09:38:24;21.30;60.10
2957;DHT22;1488;51.548;7.222;2024-02-23T09:40:51;21.30;60.10
2957;DHT22;1488;51.548;7.222;2024-02-23T09:43:20;21.30;60.10
2957;DHT22;1488;51.548;7.222;2024-02-23T09:45:51;21.30;60.10
2957;DHT22;1488;51.548;7.222;2024-02-23T09:48:18;21.30;60.20
2957;DHT22;1488;51.548;7.222;2024-02-23T09:50:47;21.30;60.10
2957;DHT22;1488;51.548;7.222;2024-02-23T09:53:14;21.30;60.20
2957;DHT22;1488;51.548;7.222;2024-02-23T09:55:42;21.30;60.20
2957;DHT22;1488;51.548;7.222;2024-02-23T09:58:10;21.30;60.20
2957;DHT22;1488;51.548;7.222;2024-02-23T10:00:40;21.30;60.20
2957;DHT22;1488;51.548;7.222;2024-02-23T10:03:07;21.30;60.10
2957;DHT22;1488;51.548;7.222;2024-02-23T10:05:34;21.30;60.20
2957;DHT22;1488;51.548;7.222;2024-02-23T10:08:01;21.30;60.00
2957;DHT22;1488;51.548;7.222;2024-02-23T10:10:29;21.30;60.00
2957;DHT22;1488;51.548;7.222;2024-02-23T10:12:57;21.30;60.10
2957;DHT22;1488;51.548;7.222;2024-02-23T10:15:24;21.30;60.00
2957;DHT22;1488;51.548;7.222;2024-02-23T10:17:52;21.30;60.30
2957;DHT22;1488;51.548;7.222;2024-02-23T10:20:20;21.40;60.50
2957;DHT22;1488;51.548;7.222;2024-02-23T10:22:47;21.40;60.40
2957;DHT22;1488;51.548;7.222;2024-02-23T10:25:14;21.30;60.40
2957;DHT22;1488;51.548;7.222;2024-02-23T10:27:41;21.40;60.40
2957;DHT22;1488;51.548;7.222;2024-02-23T10:30:09;21.40;60.40
2957;DHT22;1488;51.548;7.222;2024-02-23T10:32:38;21.30;60.40
2957;DHT22;1488;51.548;7.222;2024-02-23T10:35:10;21.30;60.40
2957;DHT22;1488;51.548;7.222;2024-02-23T10:37:37;21.30;60.40
2957;DHT22;1488;51.548;7.222;2024-02-23T10:40:06;21.30;60.40
2957;DHT22;1488;51.548;7.222;2024-02-23T10:42:36;21.30;60.50
2957;DHT22;1488;51.548;7.222;2024-02-23T10:45:05;21.30;60.40
2957;DHT22;1488;51.548;7.222;2024-02-23T10:47:34;21.30;60.30
2957;DHT22;1488;51.548;7.222;2024-02-23T10:50:02;21.30;60.40
2957;DHT22;1488;51.548;7.222;2024-02-23T10:52:32;21.30;60.40
2957;DHT22;1488;51.548;7.222;2024-02-23T10:55:00;21.30;60.40
2957;DHT22;1488;51.548;7.222;2024-02-23T10:57:30;21.30;60.40
2957;DHT22;1488;51.548;7.222;2024-02-23T10:59:57;21.30;60.30
2957;DHT22;1488;51.548;7.222;2024-02-23T11:02:26;21.30;60.30
2957;DHT22;1488;51.548;7.222;2024-02-23T11:04:56;21.30;60.30
2957;DHT22;1488;51.548;7.222;2024-02-23T11:07:24;21.20;60.20
2957;DHT22;1488;51.548;7.222;2024-02-23T11:09:58;21.20;60.20
2957;DHT22;1488;51.548;7.222;2024-02-23T11:12:28;21.30;60.40
2957;DHT22;1488;51.548;7.222;2024-02-23T11:14:57;21.30;60.50
2957;DHT22;1488;51.548;7.222;2024-02-23T11:17:26;21.30;60.60
2957;DHT22;1488;51.548;7.222;2024-02-23T11:19:54;21.40;60.60
2957;DHT22;1488;51.548;7.222;2024-02-23T11:22:24;21.30;60.40
2957;DHT22;1488;51.548;7.222;2024-02-23T11:24:59;21.30;60.50
2957;DHT22;1488;51.548;7.222;2024-02-23T11:27:30;21.30;60.50
2957;DHT22;1488;51.548;7.222;2024-02-23T11:30:02;21.30;60.50
2957;DHT22;1488;51.548;7.222;2024-02-23T11:32:37;21.30;60.50
2957;DHT22;1488;51.548;7.222;2024-02-23T11:35:06;21.30;60.60
2957;DHT22;1488;51.548;7.222;2024-02-23T11:37:45;21.30;60.60
2957;DHT22;1488;51.548;7.222;2024-02-23T11:40:14;21.30;60.60
2957;DHT22;1488;51.548;7.222;2024-02-23T11:42:41;21.30;60.70
2957;DHT22;1488;51.548;7.222;2024-02-23T11:45:09;21.30;60.60
2957;DHT22;1488;51.548;7.222;2024-02-23T11:47:36;21.30;60.60
2957;DHT22;1488;51.548;7.222;2024-02-23T11:50:04;21.30;60.60
2957;DHT22;1488;51.548;7.222;2024-02-23T11:52:31;21.20;60.40
2957;DHT22;1488;51.548;7.222;2024-02-23T11:54:59;21.20;60.40
2957;DHT22;1488;51.548;7.222;2024-02-23T11:57:27;21.20;60.50
2957;DHT22;1488;51.548;7.222;2024-02-23T11:59:54;21.20;60.50
2957;DHT22;1488;51.548;7.222;2024-02-23T12:02:21;21.20;60.50
2957;DHT22;1488;51.548;7.222;2024-02-23T12:04:48;21.20;60.50
2957;DHT22;1488;51.548;7.222;2024-02-23T12:07:15;21.30;60.60
2957;DHT22;1488;51.548;7.222;2024-02-23T12:09:42;21.20;60.50
2957;DHT22;1488;51.548;7.222;2024-02-23T12:12:09;21.20;60.40
2957;DHT22;1488;51.548;7.222;2024-02-23T12:14:38;21.20;60.40
2957;DHT22;1488;51.548;7.222;2024-02-23T12:17:08;21.20;60.50
2957;DHT22;1488;51.548;7.222;2024-02-23T12:19:37;21.20;60.40
2957;DHT22;1488;51.548;7.222;2024-02-23T12:22:04;21.20;60.40
2957;DHT22;1488;51.548;7.222;2024-02-23T12:24:31;21.20;60.40
2957;DHT22;1488;51.548;7.222;2024-02-23T12:26:58;21.30;60.50
2957;DHT22;1488;51.548;7.222;2024-02-23T12:29:25;21.20;60.40
2957;DHT22;1488;51.548;7.222;2024-02-23T12:32:02;21.20;60.40
2957;DHT22;1488;51.548;7.222;2024-02-23T12:34:29;21.20;60.30
2957;DHT22;1488;51.548;7.222;2024-02-23T12:36:56;21.20;60.30
2957;DHT22;1488;51.548;7.222;2024-02-23T12:39:23;21.20;61.20
2957;DHT22;1488;51.548;7.222;2024-02-23T12:41:49;21.20;60.40
2957;DHT22;1488;51.548;7.222;2024-02-23T12:44:17;21.20;60.40
2957;DHT22;1488;51.548;7.222;2024-02-23T12:46:44;21.20;60.30
2957;DHT22;1488;51.548;7.222;2024-02-23T12:49:12;21.20;60.30
2957;DHT22;1488;51.548;7.222;2024-02-23T12:51:39;21.10;60.10
2957;DHT22;1488;51.548;7.222;2024-02-23T12:54:05;21.10;60.10
2957;DHT22;1488;51.548;7.222;2024-02-23T12:56:32;21.20;60.20
2957;DHT22;1488;51.548;7.222;2024-02-23T12:58:59;21.20;60.10
2957;DHT22;1488;51.548;7.222;2024-02-23T13:01:26;21.10;60.10
2957;DHT22;1488;51.548;7.222;2024-02-23T13:03:53;21.10;60.10
2957;DHT22;1488;51.548;7.222;2024-02-23T13:06:21;21.10;60.00
2957;DHT22;1488;51.548;7.222;2024-02-23T13:08:48;21.10;60.00
2957;DHT22;1488;51.548;7.222;2024-02-23T13:11:15;21.10;60.00
2957;DHT22;1488;51.548;7.222;2024-02-23T13:13:42;21.10;60.10
2957;DHT22;1488;51.548;7.222;2024-02-23T13:16:09;21.10;60.00
2957;DHT22;1488;51.548;7.222;2024-02-23T13:18:36;21.10;60.10
2957;DHT22;1488;51.548;7.222;2024-02-23T13:21:03;21.10;60.10
2957;DHT22;1488;51.548;7.222;2024-02-23T13:23:31;21.10;60.00
2957;DHT22;1488;51.548;7.222;2024-02-23T13:25:58;21.10;60.00
2957;DHT22;1488;51.548;7.222;2024-02-23T13:28:28;21.10;60.00
2957;DHT22;1488;51.548;7.222;2024-02-23T13:30:55;21.10;60.00
2957;DHT22;1488;51.548;7.222;2024-02-23T13:33:21;21.20;60.20
2957;DHT22;1488;51.548;7.222;2024-02-23T13:35:49;21.10;60.00
2957;DHT22;1488;51.548;7.222;2024-02-23T13:38:16;21.20;60.10
2957;DHT22;1488;51.548;7.222;2024-02-23T13:40:45;21.10;60.00
2957;DHT22;1488;51.548;7.222;2024-02-23T13:43:12;21.10;59.90
2957;DHT22;1488;51.548;7.222;2024-02-23T13:45:48;21.10;60.00
2957;DHT22;1488;51.548;7.222;2024-02-23T13:48:16;21.10;60.00
2957;DHT22;1488;51.548;7.222;2024-02-23T13:50:44;21.10;60.00
2957;DHT22;1488;51.548;7.222;2024-02-23T13:53:11;21.10;60.00
2957;DHT22;1488;51.548;7.222;2024-02-23T13:55:38;21.10;60.00
2957;DHT22;1488;51.548;7.222;2024-02-23T13:58:06;21.10;60.00
2957;DHT22;1488;51.548;7.222;2024-02-23T14:00:33;21.10;60.00
2957;DHT22;1488;51.548;7.222;2024-02-23T14:03:00;21.10;60.00
2957;DHT22;1488;51.548;7.222;2024-02-23T14:05:26;21.10;60.00
2957;DHT22;1488;51.548;7.222;2024-02-23T14:07:54;21.10;60.00
2957;DHT22;1488;51.548;7.222;2024-02-23T14:10:21;21.10;60.00
2957;DHT22;1488;51.548;7.222;2024-02-23T14:12:48;21.10;60.00
2957;DHT22;1488;51.548;7.222;2024-02-23T14:15:17;21.00;60.00
2957;DHT22;1488;51.548;7.222;2024-02-23T14:17:44;21.00;59.90
2957;DHT22;1488;51.548;7.222;2024-02-23T14:20:11;21.00;59.90
2957;DHT22;1488;51.548;7.222;2024-02-23T14:22:39;21.00;59.90
2957;DHT22;1488;51.548;7.222;2024-02-23T14:25:06;21.10;60.00
2957;DHT22;1488;51.548;7.222;2024-02-23T14:27:33;21.00;59.80
2957;DHT22;1488;51.548;7.222;2024-02-23T14:30:00;21.00;59.90
2957;DHT22;1488;51.548;7.222;2024-02-23T14:32:28;21.00;59.90
2957;DHT22;1488;51.548;7.222;2024-02-23T14:34:56;21.00;59.90
2957;DHT22;1488;51.548;7.222;2024-02-23T14:37:23;21.00;60.00
2957;DHT22;1488;51.548;7.222;2024-02-23T14:39:50;21.00;59.80
2957;DHT22;1488;51.548;7.222;2024-02-23T14:42:17;21.00;59.90
2957;DHT22;1488;51.548;7.222;2024-02-23T14:44:44;21.00;60.00
2957;DHT22;1488;51.548;7.222;2024-02-23T14:47:11;21.00;59.90
2957;DHT22;1488;51.548;7.222;2024-02-23T14:49:40;21.00;59.90
2957;DHT22;1488;51.548;7.222;2024-02-23T14:52:07;21.00;59.80
2957;DHT22;1488;51.548;7.222;2024-02-23T14:54:33;21.10;60.00
2957;DHT22;1488;51.548;7.222;2024-02-23T14:57:01;21.00;59.90
2957;DHT22;1488;51.548;7.222;2024-02-23T14:59:29;21.00;59.90
2957;DHT22;1488;51.548;7.222;2024-02-23T15:01:56;21.10;60.00
2957;DHT22;1488;51.548;7.222;2024-02-23T15:04:23;21.00;59.90
2957;DHT22;1488;51.548;7.222;2024-02-23T15:06:51;21.00;59.90
2957;DHT22;1488;51.548;7.222;2024-02-23T15:09:18;21.00;59.90
2957;DHT22;1488;51.548;7.222;2024-02-23T15:11:45;21.00;59.90
2957;DHT22;1488;51.548;7.222;2024-02-23T15:14:12;21.00;59.90
2957;DHT22;1488;51.548;7.222;2024-02-23T15:16:40;21.00;59.90
2957;DHT22;1488;51.548;7.222;2024-02-23T15:19:07;21.00;59.90
2957;DHT22;1488;51.548;7.222;2024-02-23T15:21:35;21.00;59.90
2957;DHT22;1488;51.548;7.222;2024-02-23T15:24:07;21.00;59.90
2957;DHT22;1488;51.548;7.222;2024-02-23T15:26:34;21.00;59.80
2957;DHT22;1488;51.548;7.222;2024-02-23T15:29:00;21.00;59.90
2957;DHT22;1488;51.548;7.222;2024-02-23T15:31:28;21.00;59.90
2957;DHT22;1488;51.548;7.222;2024-02-23T15:33:55;21.10;59.90
2957;DHT22;1488;51.548;7.222;2024-02-23T15:36:23;21.00;59.80
2957;DHT22;1488;51.548;7.222;2024-02-23T15:38:50;21.00;59.90
2957;DHT22;1488;51.548;7.222;2024-02-23T15:41:19;21.00;59.80
2957;DHT22;1488;51.548;7.222;2024-02-23T15:43:46;20.90;59.80
2957;DHT22;1488;51.548;7.222;2024-02-23T15:46:13;20.90;59.80
2957;DHT22;1488;51.548;7.222;2024-02-23T15:48:40;20.90;59.80
2957;DHT22;1488;51.548;7.222;2024-02-23T15:51:07;20.90;59.90
2957;DHT22;1488;51.548;7.222;2024-02-23T15:53:33;20.90;59.90
2957;DHT22;1488;51.548;7.222;2024-02-23T15:56:00;20.90;59.90
2957;DHT22;1488;51.548;7.222;2024-02-23T15:58:29;20.90;59.90
2957;DHT22;1488;51.548;7.222;2024-02-23T16:00:55;20.90;59.70
2957;DHT22;1488;51.548;7.222;2024-02-23T16:03:22;20.90;59.60